createdAt,value
2018-09-20T00:01:18.004Z,9.50
2018-09-20T00:06:12.457Z,10.80
2018-09-20T00:11:07.380Z,10.37
2018-09-20T00:16:01.801Z,9.70
2018-09-20T00:20:56.257Z,9.33
2018-09-20T00:25:50.677Z,9.37
2018-09-20T00:30:45.084Z,9.73
2018-09-20T00:35:39.564Z,10.23
2018-09-20T00:40:34.002Z,9.90
2018-09-20T00:45:28.427Z,10.53
2018-09-20T00:50:22.900Z,9.80
2018-09-20T00:55:17.340Z,10.07
2018-09-20T01:00:11.869Z,9.83
2018-09-20T01:05:06.635Z,9.70
2018-09-20T01:10:01.085Z,9.33
2018-09-20T01:14:55.557Z,9.90
2018-09-20T01:19:50.017Z,9.67
2018-09-20T01:24:44.499Z,10.40
2018-09-20T01:29:38.932Z,9.40
2018-09-20T01:34:33.404Z,10.13
2018-09-20T01:39:27.849Z,9.23
2018-09-20T01:44:22.293Z,10.13
2018-09-20T01:49:16.728Z,9.73
2018-09-20T01:54:11.160Z,11.30
2018-09-20T01:59:05.628Z,12.00
2018-09-20T02:04:00.113Z,12.10
2018-09-20T02:08:54.636Z,10.80
2018-09-20T02:13:49.080Z,10.07
2018-09-20T02:18:43.563Z,10.47
2018-09-20T02:23:38.020Z,12.10
2018-09-20T02:28:32.444Z,13.13
2018-09-20T02:33:26.976Z,13.50
2018-09-20T02:38:21.448Z,15.30
2018-09-20T02:43:15.934Z,16.83
2018-09-20T02:48:10.365Z,15.03
2018-09-20T02:53:05.004Z,12.80
2018-09-20T02:57:59.699Z,12.83
2018-09-20T03:02:54.156Z,13.27
2018-09-20T03:07:48.608Z,12.43
2018-09-20T03:12:43.087Z,12.43
2018-09-20T03:17:37.563Z,12.27
2018-09-20T03:22:32.017Z,13.30
2018-09-20T03:27:26.512Z,13.20
2018-09-20T03:32:20.936Z,14.03
2018-09-20T03:37:15.406Z,13.80
2018-09-20T03:42:09.944Z,13.47
2018-09-20T03:47:04.412Z,14.83
2018-09-20T03:51:58.901Z,13.70
2018-09-20T03:56:53.514Z,14.03
2018-09-20T04:01:48.004Z,13.60
2018-09-20T04:06:42.560Z,13.47
2018-09-20T04:11:37.129Z,15.13
2018-09-20T04:16:31.648Z,16.90
2018-09-20T04:21:34.610Z,15.47
2018-09-20T04:26:29.696Z,15.23
2018-09-20T04:31:24.531Z,15.87
2018-09-20T04:36:19.001Z,15.17
2018-09-20T04:41:13.560Z,15.17
2018-09-20T04:46:08.128Z,13.27
2018-09-20T04:51:02.760Z,14.90
2018-09-20T04:55:57.341Z,14.70
2018-09-20T05:00:52.026Z,14.43
2018-09-20T05:05:46.488Z,14.43
2018-09-20T05:10:41.008Z,14.73
2018-09-20T05:15:35.672Z,14.37
2018-09-20T05:20:30.199Z,13.73
2018-09-20T05:25:24.693Z,15.10
2018-09-20T05:30:19.257Z,13.73
2018-09-20T05:35:13.850Z,12.60
2018-09-20T05:40:08.437Z,12.63
2018-09-20T05:45:03.012Z,14.07
2018-09-20T05:49:57.546Z,17.33
2018-09-20T05:54:52.403Z,21.10
2018-09-20T05:59:58.593Z,24.83
2018-09-20T06:05:03.371Z,25.63
2018-09-20T06:09:58.226Z,19.80
2018-09-20T06:14:52.896Z,26.50
2018-09-20T06:19:48.548Z,26.53
2018-09-20T06:24:53.411Z,20.63
2018-09-20T06:29:56.739Z,21.27
2018-09-20T06:34:53.042Z,21.30
2018-09-20T06:39:48.639Z,21.33
2018-09-20T06:44:43.248Z,22.40
2018-09-20T06:49:37.873Z,19.70
2018-09-20T06:54:32.418Z,20.93
2018-09-20T06:59:27.105Z,20.27
2018-09-20T07:04:21.665Z,21.20
2018-09-20T07:09:16.316Z,20.63
2018-09-20T07:14:10.841Z,20.77
2018-09-20T07:19:05.459Z,20.97
2018-09-20T07:23:59.864Z,20.23
2018-09-20T07:28:54.718Z,18.10
2018-09-20T07:33:49.495Z,19.10
2018-09-20T07:38:47.801Z,22.13
2018-09-20T07:44:04.024Z,18.53
2018-09-20T07:49:19.795Z,20.00
2018-09-20T07:54:34.560Z,17.97
2018-09-20T07:59:53.630Z,17.63
2018-09-20T08:05:12.719Z,20.83
2018-09-20T08:10:28.102Z,19.60
2018-09-20T08:15:22.809Z,17.57
2018-09-20T08:20:38.125Z,19.70
2018-09-20T08:25:49.098Z,18.48
2018-09-20T08:30:52.783Z,17.85
2018-09-20T08:36:03.963Z,17.92
2018-09-20T08:41:18.988Z,14.70
2018-09-20T08:46:14.627Z,14.15
2018-09-20T08:51:31.134Z,13.18
2018-09-20T08:56:38.015Z,11.78
2018-09-20T09:01:32.680Z,12.65
2018-09-20T09:06:27.808Z,12.00
2018-09-20T09:11:23.243Z,10.20
2018-09-20T09:16:18.726Z,11.45
2018-09-20T09:21:13.329Z,9.98
2018-09-20T09:26:09.173Z,11.25
2018-09-20T09:31:04.194Z,10.98
2018-09-20T09:35:59.099Z,12.68
2018-09-20T09:40:55.132Z,12.70
2018-09-20T09:45:50.117Z,13.55
2018-09-20T09:50:45.109Z,13.38
2018-09-20T09:55:39.784Z,11.53
2018-09-20T10:00:36.549Z,11.95
2018-09-20T10:05:31.769Z,10.00
2018-09-20T10:10:26.581Z,10.40
2018-09-20T10:15:21.461Z,11.05
2018-09-20T10:20:16.539Z,12.25
2018-09-20T10:25:11.509Z,10.72
2018-09-20T10:30:07.162Z,12.90
2018-09-20T10:35:01.932Z,11.43
2018-09-20T10:39:56.893Z,12.63
2018-09-20T10:44:52.583Z,10.38
2018-09-20T10:49:47.308Z,11.48
2018-09-20T10:54:54.408Z,12.03
2018-09-20T11:00:10.317Z,11.08
2018-09-20T11:05:11.317Z,10.60
2018-09-20T11:10:07.306Z,10.82
2018-09-20T11:15:02.377Z,10.78
2018-09-20T11:19:58.776Z,10.08
2018-09-20T11:24:54.810Z,9.55
2018-09-20T11:29:49.630Z,11.20
2018-09-20T11:35:22.131Z,13.70
2018-09-20T11:40:17.248Z,11.10
2018-09-20T11:45:12.012Z,13.13
2018-09-20T11:50:07.545Z,12.07
2018-09-20T11:55:02.893Z,12.95
2018-09-20T11:59:57.737Z,13.68
2018-09-20T12:04:52.321Z,11.75
2018-09-20T12:09:46.834Z,12.25
2018-09-20T12:14:41.993Z,12.98
2018-09-20T12:19:38.418Z,12.10
2018-09-20T12:24:33.221Z,13.40
2018-09-20T12:29:27.777Z,12.43
2018-09-20T12:34:22.351Z,13.05
2018-09-20T12:39:17.107Z,11.33
2018-09-20T12:44:11.645Z,10.28
2018-09-20T12:49:06.349Z,10.90
2018-09-20T12:54:00.853Z,10.32
2018-09-20T12:58:55.630Z,11.83
2018-09-20T13:03:51.808Z,10.23
2018-09-20T13:08:46.860Z,10.08
2018-09-20T13:13:42.257Z,9.38
2018-09-20T13:18:36.795Z,8.60
2018-09-20T13:23:31.216Z,8.05
2018-09-20T13:28:25.880Z,7.97
2018-09-20T13:33:20.304Z,7.22
2018-09-20T13:38:14.784Z,7.30
2018-09-20T13:43:09.236Z,6.60
2018-09-20T13:48:03.633Z,6.67
2018-09-20T13:52:58.101Z,6.50
2018-09-20T13:57:52.632Z,6.70
2018-09-20T14:02:47.692Z,5.97
2018-09-20T14:07:42.288Z,6.00
2018-09-20T14:12:36.718Z,6.40
2018-09-20T14:17:31.929Z,5.05
2018-09-20T14:22:26.382Z,5.47
2018-09-20T14:27:23.041Z,5.97
2018-09-20T14:32:17.540Z,5.87
2018-09-20T14:37:12.390Z,5.40
2018-09-20T14:42:07.160Z,5.40
2018-09-20T14:47:01.628Z,6.05
2018-09-20T14:51:56.389Z,5.60
2018-09-20T14:56:51.010Z,5.45
2018-09-20T15:01:45.503Z,5.60
2018-09-20T15:06:40.783Z,4.65
2018-09-20T15:11:35.810Z,4.97
2018-09-20T15:16:30.486Z,4.95
2018-09-20T15:21:24.996Z,4.50
2018-09-20T15:26:20.356Z,4.33
2018-09-20T15:31:14.922Z,4.22
2018-09-20T15:36:10.364Z,4.00
2018-09-20T15:41:04.833Z,4.35
2018-09-20T15:45:59.661Z,4.17
2018-09-20T15:50:54.801Z,4.03
2018-09-20T15:55:50.122Z,3.80
2018-09-20T16:00:45.053Z,4.83
2018-09-20T16:05:40.206Z,4.20
2018-09-20T16:10:34.837Z,3.77
2018-09-20T16:15:29.735Z,3.92
2018-09-20T16:20:24.344Z,3.85
2018-09-20T16:25:19.025Z,3.52
2018-09-20T16:30:41.243Z,3.83
2018-09-20T16:35:49.471Z,3.80
2018-09-20T16:40:47.178Z,3.50
2018-09-20T16:45:42.279Z,3.47
2018-09-20T16:50:37.624Z,3.60
2018-09-20T16:55:32.588Z,4.30
2018-09-20T17:00:27.502Z,4.20
2018-09-20T17:05:24.930Z,4.25
2018-09-20T17:10:21.116Z,4.50
2018-09-20T17:15:15.797Z,5.30
2018-09-20T17:20:10.769Z,5.15
2018-09-20T17:25:05.525Z,4.75
2018-09-20T17:30:00.077Z,5.45
2018-09-20T17:34:55.258Z,4.78
2018-09-20T17:39:52.542Z,5.00
2018-09-20T17:44:47.118Z,5.12
2018-09-20T17:49:41.672Z,6.28
2018-09-20T17:54:36.904Z,5.50
2018-09-20T17:59:31.409Z,5.67
2018-09-20T18:04:26.037Z,5.00
2018-09-20T18:09:20.605Z,5.40
2018-09-20T18:14:15.225Z,5.55
2018-09-20T18:19:09.828Z,6.30
2018-09-20T18:24:05.549Z,5.50
2018-09-20T18:29:00.028Z,6.20
2018-09-20T18:33:55.884Z,5.95
2018-09-20T18:38:50.421Z,5.45
2018-09-20T18:43:45.249Z,5.08
2018-09-20T18:48:39.802Z,5.35
2018-09-20T18:53:34.421Z,6.10
2018-09-20T18:58:28.962Z,7.10
2018-09-20T19:03:24.665Z,6.83
2018-09-20T19:08:19.838Z,7.67
2018-09-20T19:13:15.829Z,8.00
2018-09-20T19:18:10.718Z,7.80
2018-09-20T19:23:05.283Z,8.40
2018-09-20T19:27:59.964Z,7.67
2018-09-20T19:32:54.842Z,7.67
2018-09-20T19:37:49.377Z,7.20
2018-09-20T19:42:43.954Z,8.07
2018-09-20T19:47:38.500Z,7.53
2018-09-20T19:52:33.073Z,7.70
2018-09-20T19:57:27.838Z,7.20
2018-09-20T20:02:22.397Z,6.63
2018-09-20T20:07:16.975Z,7.40
2018-09-20T20:12:11.581Z,6.80
2018-09-20T20:17:07.040Z,6.13
2018-09-20T20:22:01.745Z,6.70
2018-09-20T20:26:56.431Z,6.83
2018-09-20T20:31:51.420Z,7.87
2018-09-20T20:36:46.296Z,9.63
2018-09-20T20:41:41.160Z,8.13
2018-09-20T20:46:35.910Z,8.10
2018-09-20T20:51:30.669Z,8.20
2018-09-20T20:56:26.249Z,8.63
2018-09-20T21:01:21.805Z,8.83
2018-09-20T21:06:17.429Z,9.50
2018-09-20T21:11:12.000Z,8.67
2018-09-20T21:16:06.775Z,8.90
2018-09-20T21:21:01.299Z,8.57
2018-09-20T21:25:55.892Z,10.13
2018-09-20T21:30:50.519Z,8.47
2018-09-20T21:35:45.043Z,8.03
2018-09-20T21:40:39.555Z,7.60
2018-09-20T21:45:34.093Z,6.73
2018-09-20T21:50:28.649Z,7.10
2018-09-20T21:55:23.197Z,7.97
2018-09-20T22:00:17.917Z,8.30
2018-09-20T22:05:12.666Z,8.93
2018-09-20T22:10:07.284Z,9.27
2018-09-20T22:15:01.901Z,9.80
2018-09-20T22:19:56.471Z,9.40
2018-09-20T22:24:50.978Z,9.97
2018-09-20T22:29:45.777Z,8.97
2018-09-20T22:34:40.370Z,8.27
2018-09-20T22:39:35.276Z,7.90
2018-09-20T22:44:29.802Z,8.03
2018-09-20T22:49:24.329Z,8.17
2018-09-20T22:54:18.918Z,7.87
2018-09-20T22:59:13.449Z,7.97
2018-09-20T23:04:08.009Z,8.40
2018-09-20T23:09:02.557Z,7.67
2018-09-20T23:13:57.144Z,8.30
2018-09-20T23:18:51.809Z,8.47
2018-09-20T23:23:46.313Z,8.53
2018-09-20T23:28:40.800Z,8.20
2018-09-20T23:33:35.320Z,9.00
2018-09-20T23:38:29.996Z,9.10
2018-09-20T23:43:24.636Z,7.63
2018-09-20T23:48:19.236Z,8.37
2018-09-20T23:53:13.665Z,8.60
2018-09-20T23:58:08.261Z,9.00
